ASA598 PHNL-KSAN
Flight info
| Callsign | ASA598 |
|---|---|
| Flight time | 5h 9m |
| Altitude | 31000 |
| Route | MKK5 KOLEA CLUTS R465 CIVIT R585 GITLE/N0458F330 ADUMM GALIP AUDIA RYDRR LAX COMIX2 |
| Aircraft | B739/M-SDE2E3FGHIRWXY/LB1 |
Departure
| Time | 2026-04-25 23:29 |
|---|---|
| Airport | Daniel K. Inouye International Airport (PHNL) |
Arrival
| Time | 2026-04-26 04:38 |
|---|---|
| Airport | San Diego International Airport (KSAN) |
| Time | Latitude | Longitude | Altitude | Speed | Heading |
|---|---|---|---|---|---|
| 2026-04-25 22:56 | 21.33045 | -157.91947 | 19 ft | 0 kts | 279° |
| 2026-04-25 23:16 | 21.33042 | -157.91932 | 20 ft | 4 kts | 292° |
| 2026-04-25 23:16 | 21.33029 | -157.91909 | 20 ft | 4 kts | 311° |
| 2026-04-25 23:16 | 21.33014 | -157.91888 | 19 ft | 4 kts | 277° |
| 2026-04-25 23:17 | 21.33003 | -157.91888 | 18 ft | 2 kts | 193° |
| 2026-04-25 23:22 | 21.33002 | -157.91888 | 18 ft | 1 kts | 189° |
| 2026-04-25 23:22 | 21.32969 | -157.91894 | 18 ft | 9 kts | 189° |
| 2026-04-25 23:22 | 21.32876 | -157.91909 | 16 ft | 18 kts | 188° |
| 2026-04-25 23:23 | 21.32774 | -157.92083 | 18 ft | 16 kts | 270° |
| 2026-04-25 23:23 | 21.32774 | -157.92198 | 18 ft | 15 kts | 270° |
| 2026-04-25 23:23 | 21.32774 | -157.92317 | 17 ft | 18 kts | 270° |
| 2026-04-25 23:23 | 21.32774 | -157.92465 | 17 ft | 21 kts | 271° |
| 2026-04-25 23:24 | 21.32775 | -157.92618 | 20 ft | 20 kts | 270° |
| 2026-04-25 23:24 | 21.32754 | -157.92764 | 20 ft | 20 kts | 249° |
| 2026-04-25 23:24 | 21.32742 | -157.92907 | 19 ft | 19 kts | 270° |
| 2026-04-25 23:24 | 21.32742 | -157.93046 | 20 ft | 18 kts | 270° |
| 2026-04-25 23:25 | 21.32741 | -157.93181 | 20 ft | 18 kts | 270° |
| 2026-04-25 23:25 | 21.32740 | -157.93311 | 19 ft | 17 kts | 270° |
| 2026-04-25 23:25 | 21.32740 | -157.93436 | 19 ft | 16 kts | 270° |
| 2026-04-25 23:25 | 21.32741 | -157.93556 | 20 ft | 16 kts | 270° |
| 2026-04-25 23:26 | 21.32742 | -157.93671 | 21 ft | 15 kts | 270° |
| 2026-04-25 23:26 | 21.32740 | -157.93782 | 20 ft | 14 kts | 270° |
| 2026-04-25 23:26 | 21.32739 | -157.93884 | 19 ft | 14 kts | 269° |
| 2026-04-25 23:26 | 21.32738 | -157.93984 | 20 ft | 13 kts | 270° |
| 2026-04-25 23:27 | 21.32738 | -157.94079 | 21 ft | 13 kts | 270° |
| 2026-04-25 23:27 | 21.32739 | -157.94173 | 22 ft | 13 kts | 271° |
| 2026-04-25 23:27 | 21.32739 | -157.94272 | 21 ft | 14 kts | 269° |
| 2026-04-25 23:27 | 21.32668 | -157.94324 | 22 ft | 14 kts | 179° |
| 2026-04-25 23:28 | 21.32576 | -157.94323 | 25 ft | 12 kts | 176° |
| 2026-04-25 23:28 | 21.32529 | -157.94269 | 23 ft | 9 kts | 91° |
| 2026-04-25 23:28 | 21.32529 | -157.94162 | 23 ft | 37 kts | 90° |
| 2026-04-25 23:28 | 21.32528 | -157.93626 | 18 ft | 104 kts | 90° |
| 2026-04-25 23:29 | 21.32526 | -157.92657 | 18 ft | 155 kts | 90° |
| 2026-04-25 23:29 | 21.32531 | -157.91355 | 155 ft | 186 kts | 88° |
| 2026-04-25 23:29 | 21.32497 | -157.89973 | 813 ft | 189 kts | 89° |
| 2026-04-25 23:29 | 21.32401 | -157.88548 | 1559 ft | 192 kts | 96° |
| 2026-04-25 23:30 | 21.32074 | -157.87138 | 2186 ft | 197 kts | 101° |
| 2026-04-25 23:30 | 21.31723 | -157.85730 | 2750 ft | 197 kts | 101° |
| 2026-04-25 23:30 | 21.31313 | -157.84260 | 2974 ft | 214 kts | 102° |
| 2026-04-25 23:30 | 21.30853 | -157.82671 | 3204 ft | 231 kts | 101° |
| 2026-04-25 23:31 | 21.30380 | -157.80969 | 3524 ft | 247 kts | 103° |
| 2026-04-25 23:31 | 21.29885 | -157.79201 | 4076 ft | 252 kts | 102° |
| 2026-04-25 23:31 | 21.29400 | -157.77374 | 4611 ft | 257 kts | 103° |
| 2026-04-25 23:31 | 21.28887 | -157.75529 | 5379 ft | 253 kts | 105° |
| 2026-04-25 23:32 | 21.28363 | -157.73768 | 6270 ft | 248 kts | 105° |
| 2026-04-25 23:32 | 21.27879 | -157.71973 | 6839 ft | 253 kts | 104° |
| 2026-04-25 23:32 | 21.27378 | -157.70118 | 7307 ft | 260 kts | 104° |
| 2026-04-25 23:32 | 21.26871 | -157.68260 | 7864 ft | 264 kts | 104° |
| 2026-04-25 23:33 | 21.26365 | -157.66344 | 8273 ft | 272 kts | 104° |
| 2026-04-25 23:33 | 21.25864 | -157.64347 | 8656 ft | 281 kts | 103° |
| 2026-04-25 23:33 | 21.25536 | -157.62986 | 9001 ft | 284 kts | 102° |
| 2026-04-25 23:33 | 21.25076 | -157.60917 | 9608 ft | 284 kts | 100° |
| 2026-04-25 23:34 | 21.24609 | -157.58873 | 10168 ft | 286 kts | 102° |
| 2026-04-25 23:34 | 21.24082 | -157.56737 | 10316 ft | 304 kts | 103° |
| 2026-04-25 23:34 | 21.23516 | -157.54504 | 10456 ft | 320 kts | 103° |
| 2026-04-25 23:34 | 21.22916 | -157.52156 | 10658 ft | 333 kts | 103° |
| 2026-04-25 23:35 | 21.22292 | -157.49722 | 11036 ft | 339 kts | 103° |
| 2026-04-25 23:35 | 21.21671 | -157.47309 | 11553 ft | 340 kts | 103° |
| 2026-04-25 23:35 | 21.21035 | -157.44834 | 12055 ft | 343 kts | 103° |
| 2026-04-25 23:35 | 21.20399 | -157.42353 | 12512 ft | 347 kts | 103° |
| 2026-04-25 23:36 | 21.19760 | -157.39862 | 12982 ft | 350 kts | 103° |
| 2026-04-25 23:36 | 21.19115 | -157.37351 | 13457 ft | 353 kts | 103° |
| 2026-04-25 23:36 | 21.18459 | -157.34794 | 13924 ft | 355 kts | 103° |
| 2026-04-25 23:36 | 21.17800 | -157.32233 | 14364 ft | 357 kts | 103° |
| 2026-04-25 23:37 | 21.17141 | -157.29669 | 14811 ft | 358 kts | 103° |
| 2026-04-25 23:37 | 21.16480 | -157.27100 | 15256 ft | 360 kts | 103° |
| 2026-04-25 23:37 | 21.15812 | -157.24503 | 15714 ft | 362 kts | 103° |
| 2026-04-25 23:37 | 21.15144 | -157.21908 | 16176 ft | 363 kts | 103° |
| 2026-04-25 23:38 | 21.14542 | -157.19247 | 16609 ft | 364 kts | 93° |
| 2026-04-25 23:38 | 21.14719 | -157.16585 | 17008 ft | 361 kts | 73° |
| 2026-04-25 23:38 | 21.15713 | -157.14158 | 17417 ft | 360 kts | 54° |
| 2026-04-25 23:38 | 21.17253 | -157.12003 | 17875 ft | 360 kts | 50° |
| 2026-04-25 23:39 | 21.18836 | -157.09940 | 18277 ft | 363 kts | 50° |
| 2026-04-25 23:39 | 21.20457 | -157.07859 | 18614 ft | 366 kts | 49° |
| 2026-04-25 23:39 | 21.22096 | -157.05750 | 19099 ft | 364 kts | 50° |
| 2026-04-25 23:39 | 21.23711 | -157.03655 | 19378 ft | 369 kts | 50° |
| 2026-04-25 23:40 | 21.25350 | -157.01516 | 19730 ft | 370 kts | 50° |
| 2026-04-25 23:40 | 21.26988 | -156.99367 | 20093 ft | 372 kts | 50° |
| 2026-04-25 23:40 | 21.28622 | -156.97216 | 20390 ft | 375 kts | 50° |
| 2026-04-25 23:40 | 21.30258 | -156.95056 | 20815 ft | 375 kts | 50° |
| 2026-04-25 23:41 | 21.31915 | -156.92867 | 21076 ft | 380 kts | 50° |
| 2026-04-25 23:41 | 21.33581 | -156.90664 | 21454 ft | 381 kts | 50° |
| 2026-04-25 23:41 | 21.35250 | -156.88456 | 21788 ft | 383 kts | 50° |
| 2026-04-25 23:41 | 21.36951 | -156.86205 | 22121 ft | 385 kts | 50° |
| 2026-04-25 23:42 | 21.38629 | -156.83983 | 22481 ft | 387 kts | 50° |
| 2026-04-25 23:42 | 21.40332 | -156.81728 | 22753 ft | 389 kts | 50° |
| 2026-04-25 23:42 | 21.42026 | -156.79483 | 23157 ft | 390 kts | 50° |
| 2026-04-25 23:42 | 21.43751 | -156.77196 | 23380 ft | 394 kts | 50° |
| 2026-04-25 23:43 | 21.45487 | -156.74896 | 23778 ft | 394 kts | 50° |
| 2026-04-25 23:43 | 21.47211 | -156.72608 | 24042 ft | 396 kts | 50° |
| 2026-04-25 23:43 | 21.48943 | -156.70308 | 24287 ft | 398 kts | 50° |
| 2026-04-25 23:43 | 21.50692 | -156.67986 | 24577 ft | 399 kts | 50° |
| 2026-04-25 23:44 | 21.52437 | -156.65668 | 24854 ft | 401 kts | 50° |
| 2026-04-25 23:44 | 21.54199 | -156.63325 | 25095 ft | 404 kts | 50° |
| 2026-04-25 23:44 | 21.55961 | -156.60983 | 25443 ft | 403 kts | 50° |
| 2026-04-25 23:44 | 21.57719 | -156.58645 | 25704 ft | 405 kts | 50° |
| 2026-04-25 23:45 | 21.59490 | -156.56290 | 25915 ft | 408 kts | 50° |
| 2026-04-25 23:45 | 21.61282 | -156.53905 | 26264 ft | 407 kts | 50° |
| 2026-04-25 23:45 | 21.63054 | -156.51546 | 26504 ft | 409 kts | 50° |
| 2026-04-25 23:45 | 21.64848 | -156.49157 | 26716 ft | 412 kts | 50° |
| 2026-04-25 23:46 | 21.66646 | -156.46761 | 27030 ft | 412 kts | 50° |
| 2026-04-25 23:46 | 21.68460 | -156.44343 | 27288 ft | 414 kts | 50° |
| 2026-04-25 23:46 | 21.70270 | -156.41928 | 27459 ft | 417 kts | 50° |
| 2026-04-25 23:46 | 21.72089 | -156.39500 | 27764 ft | 416 kts | 50° |
| 2026-04-25 23:47 | 21.73904 | -156.37076 | 28076 ft | 417 kts | 50° |
| 2026-04-25 23:47 | 21.75725 | -156.34643 | 28208 ft | 421 kts | 50° |
| 2026-04-25 23:47 | 21.77553 | -156.32200 | 28487 ft | 421 kts | 50° |
| 2026-04-25 23:47 | 21.79408 | -156.29719 | 28737 ft | 422 kts | 50° |
| 2026-04-25 23:48 | 21.81254 | -156.27250 | 28925 ft | 425 kts | 50° |
| 2026-04-25 23:48 | 21.83104 | -156.24774 | 29215 ft | 425 kts | 50° |
| 2026-04-25 23:48 | 21.84958 | -156.22292 | 29405 ft | 427 kts | 50° |
| 2026-04-25 23:48 | 21.86811 | -156.19810 | 29605 ft | 429 kts | 50° |
| 2026-04-25 23:49 | 21.88682 | -156.17302 | 29851 ft | 430 kts | 50° |
| 2026-04-25 23:49 | 21.90549 | -156.14799 | 30069 ft | 431 kts | 50° |
| 2026-04-25 23:49 | 21.92436 | -156.12267 | 30232 ft | 433 kts | 50° |
| 2026-04-25 23:49 | 21.94327 | -156.09729 | 30431 ft | 434 kts | 50° |
| 2026-04-25 23:50 | 21.96214 | -156.07196 | 30603 ft | 435 kts | 50° |
| 2026-04-25 23:50 | 21.98113 | -156.04645 | 30713 ft | 438 kts | 50° |
| 2026-04-25 23:50 | 22.00021 | -156.02081 | 30933 ft | 437 kts | 50° |
| 2026-04-25 23:50 | 22.01913 | -155.99536 | 31060 ft | 436 kts | 50° |
| 2026-04-25 23:51 | 22.03833 | -155.96953 | 31058 ft | 438 kts | 50° |
| 2026-04-25 23:51 | 22.07642 | -155.91825 | 31073 ft | 442 kts | 50° |
| 2026-04-25 23:52 | 22.11499 | -155.86627 | 31075 ft | 446 kts | 50° |
| 2026-04-25 23:52 | 22.15401 | -155.81364 | 31073 ft | 449 kts | 50° |
| 2026-04-25 23:53 | 22.19315 | -155.76080 | 31068 ft | 452 kts | 51° |
| 2026-04-25 23:53 | 22.23223 | -155.70797 | 31069 ft | 453 kts | 50° |
| 2026-04-25 23:54 | 22.27155 | -155.65477 | 31069 ft | 452 kts | 50° |
| 2026-04-25 23:54 | 22.31048 | -155.60204 | 31070 ft | 450 kts | 51° |
| 2026-04-25 23:55 | 22.34968 | -155.54890 | 31074 ft | 452 kts | 50° |
| 2026-04-25 23:55 | 22.38874 | -155.49590 | 31070 ft | 452 kts | 51° |
| 2026-04-25 23:56 | 22.42811 | -155.44243 | 31073 ft | 453 kts | 51° |
| 2026-04-25 23:56 | 22.46719 | -155.38927 | 31068 ft | 453 kts | 50° |
| 2026-04-25 23:57 | 22.50639 | -155.33591 | 31060 ft | 451 kts | 50° |
| 2026-04-25 23:57 | 22.54543 | -155.28271 | 31075 ft | 452 kts | 51° |
| 2026-04-25 23:58 | 22.58458 | -155.22931 | 31070 ft | 453 kts | 51° |
| 2026-04-25 23:58 | 22.62366 | -155.17597 | 31071 ft | 452 kts | 51° |
| 2026-04-25 23:59 | 22.66269 | -155.12265 | 31075 ft | 453 kts | 51° |
| 2026-04-25 23:59 | 22.70181 | -155.06913 | 31078 ft | 454 kts | 51° |
| 2026-04-26 00:00 | 22.73437 | -155.02454 | 31065 ft | 453 kts | 51° |
| 2026-04-26 00:00 | 22.77995 | -154.96206 | 31079 ft | 454 kts | 51° |
| 2026-04-26 00:01 | 22.81912 | -154.90829 | 31078 ft | 454 kts | 51° |
| 2026-04-26 00:01 | 22.85812 | -154.85471 | 31072 ft | 454 kts | 51° |
| 2026-04-26 00:02 | 22.89719 | -154.80097 | 31081 ft | 456 kts | 51° |
| 2026-04-26 00:02 | 22.93671 | -154.74656 | 31087 ft | 458 kts | 51° |
| 2026-04-26 00:03 | 22.97610 | -154.69227 | 31078 ft | 461 kts | 51° |
| 2026-04-26 00:03 | 23.01520 | -154.63675 | 31076 ft | 463 kts | 54° |
| 2026-04-26 00:04 | 23.05084 | -154.57879 | 31074 ft | 463 kts | 56° |
| 2026-04-26 00:04 | 23.08604 | -154.51985 | 31073 ft | 463 kts | 56° |
| 2026-04-26 00:05 | 23.12126 | -154.46136 | 31077 ft | 463 kts | 55° |
| 2026-04-26 00:05 | 23.15650 | -154.40329 | 31082 ft | 462 kts | 55° |
| 2026-04-26 00:06 | 23.19195 | -154.34496 | 31079 ft | 461 kts | 55° |
| 2026-04-26 00:06 | 23.22712 | -154.28703 | 31086 ft | 460 kts | 55° |
| 2026-04-26 00:07 | 23.26237 | -154.22888 | 31082 ft | 460 kts | 55° |
| 2026-04-26 00:07 | 23.29744 | -154.17097 | 31078 ft | 459 kts | 55° |
| 2026-04-26 00:08 | 23.33248 | -154.11302 | 31079 ft | 459 kts | 55° |
| 2026-04-26 00:08 | 23.36773 | -154.05467 | 31088 ft | 460 kts | 55° |
| 2026-04-26 00:09 | 23.40284 | -153.99648 | 31082 ft | 460 kts | 55° |
| 2026-04-26 00:09 | 23.43808 | -153.93801 | 31087 ft | 461 kts | 55° |
| 2026-04-26 00:10 | 23.47325 | -153.87958 | 31081 ft | 462 kts | 55° |
| 2026-04-26 00:10 | 23.50823 | -153.82140 | 31083 ft | 462 kts | 55° |
| 2026-04-26 00:11 | 23.54344 | -153.76277 | 31087 ft | 463 kts | 55° |
| 2026-04-26 00:11 | 23.57868 | -153.70403 | 31083 ft | 463 kts | 55° |
| 2026-04-26 00:12 | 23.61403 | -153.64503 | 31085 ft | 463 kts | 55° |
| 2026-04-26 00:12 | 23.64909 | -153.58645 | 31089 ft | 464 kts | 55° |
| 2026-04-26 00:13 | 23.68432 | -153.52751 | 31084 ft | 464 kts | 55° |
| 2026-04-26 00:13 | 23.71975 | -153.46816 | 31087 ft | 464 kts | 55° |
| 2026-04-26 00:14 | 23.75473 | -153.40949 | 31085 ft | 464 kts | 55° |
| 2026-04-26 00:14 | 23.79002 | -153.35028 | 31086 ft | 464 kts | 55° |
| 2026-04-26 00:15 | 23.82533 | -153.29129 | 31090 ft | 464 kts | 55° |
| 2026-04-26 00:15 | 23.86065 | -153.23233 | 31092 ft | 464 kts | 55° |
| 2026-04-26 00:16 | 23.89591 | -153.17335 | 31094 ft | 464 kts | 55° |
| 2026-04-26 00:16 | 23.93123 | -153.11417 | 31093 ft | 464 kts | 55° |
| 2026-04-26 00:17 | 23.96651 | -153.05496 | 31093 ft | 465 kts | 55° |
| 2026-04-26 00:17 | 24.00156 | -152.99607 | 31093 ft | 465 kts | 55° |
| 2026-04-26 00:18 | 24.03681 | -152.93678 | 31094 ft | 465 kts | 55° |
| 2026-04-26 00:18 | 24.07211 | -152.87732 | 31093 ft | 465 kts | 55° |
| 2026-04-26 00:19 | 24.10156 | -152.82767 | 31096 ft | 466 kts | 55° |
| 2026-04-26 00:19 | 24.13665 | -152.76846 | 31096 ft | 466 kts | 55° |
| 2026-04-26 00:20 | 24.17210 | -152.70855 | 31095 ft | 466 kts | 55° |
| 2026-04-26 00:20 | 24.20727 | -152.64904 | 31100 ft | 467 kts | 55° |
| 2026-04-26 00:21 | 24.24243 | -152.58949 | 31098 ft | 467 kts | 55° |
| 2026-04-26 00:21 | 24.27789 | -152.52934 | 31101 ft | 468 kts | 55° |
| 2026-04-26 00:22 | 24.31315 | -152.46946 | 31102 ft | 468 kts | 55° |
| 2026-04-26 00:22 | 24.34833 | -152.40966 | 31103 ft | 468 kts | 55° |
| 2026-04-26 00:23 | 24.38358 | -152.34967 | 31102 ft | 469 kts | 55° |
| 2026-04-26 00:23 | 24.41898 | -152.28933 | 31104 ft | 469 kts | 55° |
| 2026-04-26 00:24 | 24.45415 | -152.22932 | 31106 ft | 469 kts | 54° |
| 2026-04-26 00:24 | 24.48937 | -152.16914 | 31107 ft | 470 kts | 55° |
| 2026-04-26 00:25 | 24.52486 | -152.10843 | 31106 ft | 470 kts | 55° |
| 2026-04-26 00:25 | 24.56009 | -152.04809 | 31110 ft | 470 kts | 55° |
| 2026-04-26 00:26 | 24.59538 | -151.98756 | 31112 ft | 471 kts | 54° |
| 2026-04-26 00:26 | 24.63066 | -151.92699 | 31114 ft | 471 kts | 55° |
| 2026-04-26 00:27 | 24.66590 | -151.86641 | 31111 ft | 471 kts | 55° |
| 2026-04-26 00:27 | 24.70117 | -151.80569 | 31115 ft | 472 kts | 55° |
| 2026-04-26 00:28 | 24.73639 | -151.74500 | 31119 ft | 472 kts | 55° |
| 2026-04-26 00:28 | 24.77178 | -151.68390 | 31120 ft | 473 kts | 55° |
| 2026-04-26 00:29 | 24.80724 | -151.62263 | 31121 ft | 473 kts | 55° |
| 2026-04-26 00:29 | 24.84260 | -151.56146 | 31120 ft | 474 kts | 55° |
| 2026-04-26 00:30 | 24.87783 | -151.50043 | 31121 ft | 474 kts | 55° |
| 2026-04-26 00:30 | 24.91312 | -151.43923 | 31121 ft | 474 kts | 55° |
| 2026-04-26 00:31 | 24.94844 | -151.37787 | 31123 ft | 475 kts | 55° |
| 2026-04-26 00:31 | 24.98393 | -151.31615 | 31124 ft | 475 kts | 55° |
| 2026-04-26 00:32 | 25.01904 | -151.25502 | 31125 ft | 475 kts | 55° |
| 2026-04-26 00:32 | 25.07218 | -151.16233 | 31135 ft | 476 kts | 55° |
| 2026-04-26 00:33 | 25.10744 | -151.10075 | 31127 ft | 476 kts | 55° |
| 2026-04-26 00:33 | 25.14288 | -151.03875 | 31130 ft | 477 kts | 55° |
| 2026-04-26 00:34 | 25.17814 | -150.97700 | 31131 ft | 477 kts | 55° |
| 2026-04-26 00:34 | 25.21357 | -150.91485 | 31130 ft | 477 kts | 55° |
| 2026-04-26 00:35 | 25.24882 | -150.85296 | 31134 ft | 477 kts | 55° |
| 2026-04-26 00:35 | 25.28402 | -150.79106 | 31134 ft | 478 kts | 55° |
| 2026-04-26 00:36 | 25.31954 | -150.72853 | 31133 ft | 478 kts | 55° |
| 2026-04-26 00:36 | 25.35481 | -150.66634 | 31135 ft | 478 kts | 55° |
| 2026-04-26 00:37 | 25.39005 | -150.60412 | 31138 ft | 479 kts | 55° |
| 2026-04-26 00:37 | 25.42550 | -150.54147 | 31138 ft | 479 kts | 55° |
| 2026-04-26 00:38 | 25.46077 | -150.47903 | 31140 ft | 479 kts | 55° |
| 2026-04-26 00:38 | 25.49602 | -150.41655 | 31141 ft | 479 kts | 55° |
| 2026-04-26 00:39 | 25.53147 | -150.35365 | 31143 ft | 479 kts | 55° |
| 2026-04-26 00:39 | 25.56660 | -150.29120 | 31145 ft | 479 kts | 55° |
| 2026-04-26 00:40 | 25.60196 | -150.22828 | 31149 ft | 480 kts | 55° |
| 2026-04-26 00:40 | 25.63697 | -150.16588 | 31149 ft | 480 kts | 55° |
| 2026-04-26 00:41 | 25.67233 | -150.10278 | 31145 ft | 480 kts | 55° |
| 2026-04-26 00:41 | 25.70740 | -150.04012 | 31148 ft | 480 kts | 55° |
| 2026-04-26 00:42 | 25.74245 | -149.97741 | 31147 ft | 480 kts | 55° |
| 2026-04-26 00:42 | 25.77774 | -149.91419 | 31150 ft | 480 kts | 55° |
| 2026-04-26 00:43 | 25.81275 | -149.85137 | 31152 ft | 480 kts | 55° |
| 2026-04-26 00:43 | 25.84781 | -149.78838 | 31154 ft | 481 kts | 55° |
| 2026-04-26 00:44 | 25.88295 | -149.72516 | 31153 ft | 481 kts | 55° |
| 2026-04-26 00:44 | 25.91813 | -149.66178 | 31157 ft | 481 kts | 55° |
| 2026-04-26 00:45 | 25.95313 | -149.59863 | 31152 ft | 481 kts | 55° |
| 2026-04-26 00:45 | 25.97957 | -149.55088 | 31164 ft | 481 kts | 55° |
| 2026-04-26 00:46 | 26.01454 | -149.48764 | 31158 ft | 481 kts | 55° |
| 2026-04-26 00:46 | 26.04961 | -149.42414 | 31152 ft | 481 kts | 55° |
| 2026-04-26 00:47 | 26.08478 | -149.36035 | 31150 ft | 482 kts | 55° |
| 2026-04-26 00:47 | 26.11978 | -149.29679 | 31154 ft | 482 kts | 55° |
| 2026-04-26 00:48 | 26.15467 | -149.23335 | 31169 ft | 482 kts | 55° |
| 2026-04-26 00:48 | 26.18977 | -149.16942 | 31167 ft | 482 kts | 55° |
| 2026-04-26 00:49 | 26.22456 | -149.10599 | 31157 ft | 482 kts | 56° |
| 2026-04-26 00:49 | 26.25950 | -149.04218 | 31161 ft | 483 kts | 56° |
| 2026-04-26 00:50 | 26.29448 | -148.97821 | 31166 ft | 483 kts | 56° |
| 2026-04-26 00:50 | 26.32931 | -148.91443 | 31171 ft | 484 kts | 56° |
| 2026-04-26 00:51 | 26.36432 | -148.85022 | 31173 ft | 484 kts | 56° |
| 2026-04-26 00:51 | 26.39919 | -148.78618 | 31169 ft | 485 kts | 56° |
| 2026-04-26 00:52 | 26.43424 | -148.72172 | 31173 ft | 485 kts | 56° |
| 2026-04-26 00:52 | 26.46909 | -148.65752 | 31173 ft | 485 kts | 56° |
| 2026-04-26 00:53 | 26.50425 | -148.59268 | 31173 ft | 486 kts | 56° |
| 2026-04-26 00:53 | 26.53903 | -148.52844 | 31171 ft | 486 kts | 56° |
| 2026-04-26 00:54 | 26.57403 | -148.46369 | 31174 ft | 486 kts | 56° |
| 2026-04-26 00:54 | 26.60888 | -148.39913 | 31175 ft | 486 kts | 56° |
| 2026-04-26 00:55 | 26.64378 | -148.33439 | 31172 ft | 486 kts | 56° |
| 2026-04-26 00:55 | 26.67863 | -148.26965 | 31174 ft | 486 kts | 56° |
| 2026-04-26 00:56 | 26.71352 | -148.20473 | 31178 ft | 486 kts | 56° |
| 2026-04-26 00:56 | 26.74817 | -148.14017 | 31178 ft | 486 kts | 56° |
| 2026-04-26 00:57 | 26.78291 | -148.07535 | 31180 ft | 486 kts | 56° |
| 2026-04-26 00:57 | 26.81784 | -148.01008 | 31180 ft | 487 kts | 56° |
| 2026-04-26 00:58 | 26.85249 | -147.94524 | 31184 ft | 487 kts | 56° |
| 2026-04-26 00:58 | 26.88726 | -147.88008 | 31183 ft | 487 kts | 56° |
| 2026-04-26 00:59 | 26.92202 | -147.81483 | 31185 ft | 488 kts | 56° |
| 2026-04-26 00:59 | 26.95695 | -147.74916 | 31187 ft | 488 kts | 56° |
| 2026-04-26 01:00 | 26.99162 | -147.68390 | 31185 ft | 488 kts | 56° |
| 2026-04-26 01:00 | 27.02617 | -147.61875 | 31187 ft | 488 kts | 56° |
| 2026-04-26 01:01 | 27.06099 | -147.55301 | 31187 ft | 489 kts | 56° |
| 2026-04-26 01:01 | 27.09572 | -147.48732 | 31187 ft | 489 kts | 56° |
| 2026-04-26 01:02 | 27.13042 | -147.42162 | 31188 ft | 489 kts | 56° |
| 2026-04-26 01:02 | 27.16505 | -147.35592 | 31193 ft | 489 kts | 56° |
| 2026-04-26 01:03 | 27.19954 | -147.29039 | 31190 ft | 489 kts | 56° |
| 2026-04-26 01:03 | 27.23413 | -147.22456 | 31190 ft | 489 kts | 57° |
| 2026-04-26 01:04 | 27.26039 | -147.16805 | 31198 ft | 490 kts | 61° |
| 2026-04-26 01:04 | 27.28987 | -147.09866 | 31188 ft | 491 kts | 62° |
| 2026-04-26 01:05 | 27.31905 | -147.02939 | 31198 ft | 490 kts | 62° |
| 2026-04-26 01:05 | 27.34847 | -146.96036 | 31189 ft | 490 kts | 61° |
| 2026-04-26 01:06 | 27.37818 | -146.89109 | 31192 ft | 490 kts | 61° |
| 2026-04-26 01:06 | 27.40775 | -146.82219 | 31194 ft | 490 kts | 61° |
| 2026-04-26 01:07 | 27.43731 | -146.75316 | 31196 ft | 490 kts | 61° |
| 2026-04-26 01:07 | 27.46671 | -146.68433 | 31195 ft | 489 kts | 61° |
| 2026-04-26 01:08 | 27.49628 | -146.61500 | 31195 ft | 489 kts | 61° |
| 2026-04-26 01:08 | 27.52557 | -146.54618 | 31195 ft | 489 kts | 61° |
| 2026-04-26 01:09 | 27.55508 | -146.47673 | 31193 ft | 489 kts | 62° |
| 2026-04-26 01:09 | 27.58434 | -146.40779 | 31199 ft | 489 kts | 62° |
| 2026-04-26 01:10 | 27.61357 | -146.33876 | 31196 ft | 489 kts | 61° |
| 2026-04-26 01:10 | 27.64300 | -146.26917 | 31198 ft | 489 kts | 61° |
| 2026-04-26 01:11 | 27.67225 | -146.19987 | 31196 ft | 489 kts | 62° |
| 2026-04-26 01:11 | 27.70145 | -146.13058 | 31198 ft | 489 kts | 62° |
| 2026-04-26 01:12 | 27.73049 | -146.06153 | 31197 ft | 490 kts | 62° |
| 2026-04-26 01:12 | 27.75983 | -145.99167 | 31199 ft | 490 kts | 62° |
| 2026-04-26 01:13 | 27.78894 | -145.92222 | 31197 ft | 489 kts | 62° |
| 2026-04-26 01:13 | 27.81803 | -145.85270 | 31202 ft | 489 kts | 62° |
| 2026-04-26 01:14 | 27.84696 | -145.78345 | 31202 ft | 489 kts | 62° |
| 2026-04-26 01:14 | 27.87603 | -145.71376 | 31204 ft | 488 kts | 62° |
| 2026-04-26 01:15 | 27.90490 | -145.64441 | 31199 ft | 488 kts | 62° |
| 2026-04-26 01:15 | 27.93381 | -145.57484 | 31201 ft | 488 kts | 62° |
| 2026-04-26 01:16 | 27.96250 | -145.50568 | 31201 ft | 488 kts | 62° |
| 2026-04-26 01:16 | 27.99134 | -145.43605 | 31207 ft | 487 kts | 62° |
| 2026-04-26 01:17 | 28.02009 | -145.36650 | 31208 ft | 488 kts | 62° |
| 2026-04-26 01:17 | 28.04872 | -145.29714 | 31207 ft | 488 kts | 62° |
| 2026-04-26 01:18 | 28.07754 | -145.22719 | 31206 ft | 488 kts | 62° |
| 2026-04-26 01:18 | 28.10621 | -145.15747 | 31207 ft | 489 kts | 62° |
| 2026-04-26 01:19 | 28.13498 | -145.08739 | 31209 ft | 489 kts | 62° |
| 2026-04-26 01:19 | 28.16367 | -145.01738 | 31212 ft | 490 kts | 62° |
| 2026-04-26 01:20 | 28.19228 | -144.94745 | 31208 ft | 490 kts | 62° |
| 2026-04-26 01:20 | 28.22097 | -144.87719 | 31212 ft | 490 kts | 62° |
| 2026-04-26 01:21 | 28.24951 | -144.80716 | 31212 ft | 490 kts | 62° |
| 2026-04-26 01:21 | 28.27809 | -144.73691 | 31211 ft | 490 kts | 62° |
| 2026-04-26 01:22 | 28.30654 | -144.66686 | 31208 ft | 489 kts | 62° |
| 2026-04-26 01:22 | 28.33500 | -144.59665 | 31211 ft | 488 kts | 62° |
| 2026-04-26 01:23 | 28.36316 | -144.52706 | 31211 ft | 487 kts | 62° |
| 2026-04-26 01:23 | 28.39145 | -144.45704 | 31213 ft | 486 kts | 63° |
| 2026-04-26 01:24 | 28.41963 | -144.38716 | 31213 ft | 486 kts | 63° |
| 2026-04-26 01:24 | 28.44765 | -144.31756 | 31214 ft | 486 kts | 63° |
| 2026-04-26 01:25 | 28.47574 | -144.24765 | 31213 ft | 486 kts | 63° |
| 2026-04-26 01:25 | 28.50389 | -144.17746 | 31213 ft | 486 kts | 63° |
| 2026-04-26 01:26 | 28.53184 | -144.10765 | 31214 ft | 487 kts | 63° |
| 2026-04-26 01:26 | 28.55980 | -144.03770 | 31215 ft | 488 kts | 63° |
| 2026-04-26 01:27 | 28.58791 | -143.96721 | 31215 ft | 488 kts | 63° |
| 2026-04-26 01:27 | 28.61601 | -143.89664 | 31215 ft | 489 kts | 63° |
| 2026-04-26 01:28 | 28.64397 | -143.82630 | 31217 ft | 490 kts | 63° |
| 2026-04-26 01:28 | 28.67196 | -143.75573 | 31218 ft | 490 kts | 63° |
| 2026-04-26 01:29 | 28.69996 | -143.68502 | 31213 ft | 491 kts | 63° |
| 2026-04-26 01:29 | 28.72805 | -143.61394 | 31216 ft | 491 kts | 63° |
| 2026-04-26 01:30 | 28.75607 | -143.54291 | 31215 ft | 491 kts | 63° |
| 2026-04-26 01:30 | 28.78401 | -143.47197 | 31218 ft | 492 kts | 63° |
| 2026-04-26 01:31 | 28.81198 | -143.40081 | 31212 ft | 492 kts | 63° |
| 2026-04-26 01:31 | 28.83993 | -143.32955 | 31214 ft | 492 kts | 63° |
| 2026-04-26 01:32 | 28.86777 | -143.25847 | 31230 ft | 492 kts | 63° |
| 2026-04-26 01:32 | 28.89570 | -143.18699 | 31228 ft | 492 kts | 63° |
| 2026-04-26 01:33 | 28.92358 | -143.11552 | 31222 ft | 492 kts | 63° |
| 2026-04-26 01:33 | 28.95134 | -143.04423 | 31224 ft | 492 kts | 63° |
| 2026-04-26 01:34 | 28.97918 | -142.97260 | 31221 ft | 493 kts | 63° |
| 2026-04-26 01:34 | 29.00696 | -142.90097 | 31224 ft | 493 kts | 63° |
| 2026-04-26 01:35 | 29.03468 | -142.82936 | 31226 ft | 493 kts | 63° |
| 2026-04-26 01:35 | 29.06221 | -142.75812 | 31221 ft | 494 kts | 63° |
| 2026-04-26 01:36 | 29.09006 | -142.68592 | 31221 ft | 494 kts | 63° |
| 2026-04-26 01:37 | 29.13154 | -142.57812 | 31223 ft | 495 kts | 63° |
| 2026-04-26 01:37 | 29.15588 | -142.51470 | 31226 ft | 496 kts | 63° |
| 2026-04-26 01:38 | 29.18134 | -142.44825 | 31223 ft | 496 kts | 63° |
| 2026-04-26 01:38 | 29.20891 | -142.37617 | 31224 ft | 497 kts | 63° |
| 2026-04-26 01:39 | 29.23663 | -142.30355 | 31226 ft | 497 kts | 63° |
| 2026-04-26 01:39 | 29.26422 | -142.23115 | 31219 ft | 498 kts | 63° |
| 2026-04-26 01:40 | 29.29191 | -142.15831 | 31226 ft | 498 kts | 63° |
| 2026-04-26 01:40 | 29.31962 | -142.08530 | 31225 ft | 499 kts | 63° |
| 2026-04-26 01:41 | 29.34728 | -142.01226 | 31223 ft | 499 kts | 63° |
| 2026-04-26 01:41 | 29.37474 | -141.93963 | 31226 ft | 500 kts | 63° |
| 2026-04-26 01:42 | 29.40239 | -141.86632 | 31223 ft | 500 kts | 63° |
| 2026-04-26 01:42 | 29.43000 | -141.79300 | 31229 ft | 501 kts | 63° |
| 2026-04-26 01:43 | 29.45757 | -141.71961 | 31227 ft | 501 kts | 63° |
| 2026-04-26 01:43 | 29.48508 | -141.64626 | 31226 ft | 502 kts | 63° |
| 2026-04-26 01:44 | 29.51275 | -141.57230 | 31227 ft | 502 kts | 63° |
| 2026-04-26 01:44 | 29.54012 | -141.49903 | 31225 ft | 502 kts | 63° |
| 2026-04-26 01:45 | 29.56771 | -141.42501 | 31228 ft | 502 kts | 63° |
| 2026-04-26 01:45 | 29.59058 | -141.36353 | 31226 ft | 503 kts | 63° |
| 2026-04-26 01:46 | 29.61808 | -141.28948 | 31226 ft | 502 kts | 63° |
| 2026-04-26 01:46 | 29.64984 | -141.20374 | 31226 ft | 502 kts | 63° |
| 2026-04-26 01:47 | 29.67263 | -141.14212 | 31227 ft | 502 kts | 63° |
| 2026-04-26 01:47 | 29.69994 | -141.06811 | 31219 ft | 501 kts | 62° |
| 2026-04-26 01:48 | 29.72709 | -140.99441 | 31226 ft | 501 kts | 62° |
| 2026-04-26 01:48 | 29.75424 | -140.92053 | 31220 ft | 501 kts | 62° |
| 2026-04-26 01:49 | 29.78130 | -140.84678 | 31222 ft | 501 kts | 62° |
| 2026-04-26 01:49 | 29.80843 | -140.77266 | 31227 ft | 501 kts | 62° |
| 2026-04-26 01:50 | 29.83537 | -140.69891 | 31223 ft | 501 kts | 62° |
| 2026-04-26 01:50 | 29.86242 | -140.62471 | 31226 ft | 501 kts | 62° |
| 2026-04-26 01:51 | 29.88917 | -140.55117 | 31223 ft | 501 kts | 63° |
| 2026-04-26 01:51 | 29.91623 | -140.47661 | 31226 ft | 502 kts | 63° |
| 2026-04-26 01:52 | 29.94298 | -140.40278 | 31219 ft | 502 kts | 63° |
| 2026-04-26 01:52 | 29.96921 | -140.32761 | 31224 ft | 504 kts | 64° |
| 2026-04-26 01:53 | 29.99378 | -140.25206 | 31225 ft | 504 kts | 65° |
| 2026-04-26 01:53 | 30.01817 | -140.17643 | 31221 ft | 505 kts | 65° |
| 2026-04-26 01:54 | 30.04291 | -140.10026 | 31222 ft | 505 kts | 64° |
| 2026-04-26 01:54 | 30.06759 | -140.02462 | 31223 ft | 505 kts | 64° |
| 2026-04-26 01:55 | 30.09245 | -139.94838 | 31226 ft | 505 kts | 64° |
| 2026-04-26 01:55 | 30.11702 | -139.87283 | 31225 ft | 505 kts | 64° |
| 2026-04-26 01:56 | 30.14161 | -139.79700 | 31222 ft | 505 kts | 64° |
| 2026-04-26 01:56 | 30.16623 | -139.72089 | 31216 ft | 504 kts | 64° |
| 2026-04-26 01:57 | 30.19075 | -139.64491 | 31215 ft | 504 kts | 64° |
| 2026-04-26 01:57 | 30.21509 | -139.56933 | 31217 ft | 504 kts | 64° |
| 2026-04-26 01:58 | 30.23958 | -139.49312 | 31221 ft | 504 kts | 64° |
| 2026-04-26 01:58 | 30.26386 | -139.41736 | 31220 ft | 504 kts | 64° |
| 2026-04-26 01:59 | 30.28814 | -139.34146 | 31219 ft | 504 kts | 64° |
| 2026-04-26 01:59 | 30.31243 | -139.26533 | 31220 ft | 503 kts | 64° |
| 2026-04-26 02:00 | 30.33661 | -139.18941 | 31222 ft | 503 kts | 64° |
| 2026-04-26 02:00 | 30.36073 | -139.11345 | 31219 ft | 504 kts | 64° |
| 2026-04-26 02:01 | 30.38490 | -139.03719 | 31219 ft | 504 kts | 64° |
| 2026-04-26 02:01 | 30.40895 | -138.96112 | 31213 ft | 504 kts | 64° |
| 2026-04-26 02:02 | 30.43311 | -138.88452 | 31214 ft | 504 kts | 64° |
| 2026-04-26 02:02 | 30.45700 | -138.80859 | 31221 ft | 504 kts | 64° |
| 2026-04-26 02:03 | 30.48108 | -138.73190 | 31219 ft | 505 kts | 65° |
| 2026-04-26 02:03 | 30.50501 | -138.65550 | 31222 ft | 505 kts | 65° |
| 2026-04-26 02:04 | 30.52897 | -138.57883 | 31217 ft | 506 kts | 65° |
| 2026-04-26 02:04 | 30.55284 | -138.50224 | 31213 ft | 506 kts | 65° |
| 2026-04-26 02:05 | 30.57676 | -138.42534 | 31214 ft | 506 kts | 65° |
| 2026-04-26 02:05 | 30.60064 | -138.34837 | 31213 ft | 507 kts | 65° |
| 2026-04-26 02:06 | 30.62450 | -138.27126 | 31210 ft | 507 kts | 65° |
| 2026-04-26 02:06 | 30.64829 | -138.19420 | 31212 ft | 507 kts | 65° |
| 2026-04-26 02:07 | 30.67193 | -138.11749 | 31211 ft | 507 kts | 65° |
| 2026-04-26 02:07 | 30.69568 | -138.04017 | 31215 ft | 508 kts | 65° |
| 2026-04-26 02:08 | 30.71941 | -137.96278 | 31212 ft | 508 kts | 65° |
| 2026-04-26 02:08 | 30.74299 | -137.88566 | 31204 ft | 508 kts | 65° |
| 2026-04-26 02:09 | 30.76665 | -137.80812 | 31209 ft | 509 kts | 65° |
| 2026-04-26 02:09 | 30.79023 | -137.73063 | 31204 ft | 509 kts | 65° |
| 2026-04-26 02:10 | 30.81382 | -137.65291 | 31200 ft | 510 kts | 65° |
| 2026-04-26 02:10 | 30.83734 | -137.57525 | 31203 ft | 510 kts | 65° |
| 2026-04-26 02:11 | 30.86094 | -137.49713 | 31204 ft | 511 kts | 65° |
| 2026-04-26 02:11 | 30.88438 | -137.41931 | 31203 ft | 511 kts | 65° |
| 2026-04-26 02:12 | 30.90802 | -137.34067 | 31198 ft | 512 kts | 65° |
| 2026-04-26 02:12 | 30.93149 | -137.26239 | 31198 ft | 512 kts | 65° |
| 2026-04-26 02:13 | 30.95495 | -137.18395 | 31200 ft | 513 kts | 65° |
| 2026-04-26 02:13 | 30.97826 | -137.10584 | 31200 ft | 513 kts | 65° |
| 2026-04-26 02:14 | 31.00174 | -137.02694 | 31192 ft | 514 kts | 65° |
| 2026-04-26 02:14 | 31.02504 | -136.94842 | 31196 ft | 514 kts | 65° |
| 2026-04-26 02:15 | 31.04835 | -136.86969 | 31197 ft | 515 kts | 65° |
| 2026-04-26 02:15 | 31.07174 | -136.79049 | 31193 ft | 515 kts | 65° |
| 2026-04-26 02:16 | 31.09492 | -136.71178 | 31192 ft | 515 kts | 65° |
| 2026-04-26 02:16 | 31.11818 | -136.63264 | 31193 ft | 516 kts | 66° |
| 2026-04-26 02:17 | 31.14149 | -136.55309 | 31197 ft | 516 kts | 66° |
| 2026-04-26 02:17 | 31.16458 | -136.47409 | 31192 ft | 516 kts | 66° |
| 2026-04-26 02:18 | 31.18767 | -136.39489 | 31186 ft | 516 kts | 66° |
| 2026-04-26 02:18 | 31.21077 | -136.31546 | 31187 ft | 516 kts | 66° |
| 2026-04-26 02:19 | 31.23373 | -136.23628 | 31187 ft | 516 kts | 66° |
| 2026-04-26 02:19 | 31.25679 | -136.15658 | 31189 ft | 516 kts | 66° |
| 2026-04-26 02:20 | 31.27967 | -136.07727 | 31185 ft | 516 kts | 66° |
| 2026-04-26 02:20 | 31.30258 | -135.99768 | 31179 ft | 516 kts | 66° |
| 2026-04-26 02:21 | 31.32539 | -135.91820 | 31182 ft | 516 kts | 66° |
| 2026-04-26 02:21 | 31.34802 | -135.83914 | 31174 ft | 515 kts | 66° |
| 2026-04-26 02:22 | 31.37075 | -135.75953 | 31172 ft | 515 kts | 66° |
| 2026-04-26 02:22 | 31.39349 | -135.67968 | 31170 ft | 515 kts | 66° |
| 2026-04-26 02:23 | 31.41608 | -135.60012 | 31177 ft | 515 kts | 67° |
| 2026-04-26 02:23 | 31.43849 | -135.52101 | 31177 ft | 514 kts | 67° |
| 2026-04-26 02:24 | 31.46103 | -135.44122 | 31176 ft | 514 kts | 67° |
| 2026-04-26 02:24 | 31.48343 | -135.36171 | 31169 ft | 514 kts | 67° |
| 2026-04-26 02:25 | 31.50572 | -135.28238 | 31170 ft | 513 kts | 67° |
| 2026-04-26 02:25 | 31.52794 | -135.20307 | 31169 ft | 513 kts | 67° |
| 2026-04-26 02:26 | 31.55017 | -135.12356 | 31168 ft | 513 kts | 67° |
| 2026-04-26 02:26 | 31.57234 | -135.04403 | 31166 ft | 513 kts | 68° |
| 2026-04-26 02:27 | 31.59441 | -134.96461 | 31167 ft | 512 kts | 68° |
| 2026-04-26 02:27 | 31.61637 | -134.88540 | 31165 ft | 512 kts | 68° |
| 2026-04-26 02:28 | 31.63833 | -134.80597 | 31164 ft | 512 kts | 68° |
| 2026-04-26 02:28 | 31.66030 | -134.72629 | 31162 ft | 511 kts | 68° |
| 2026-04-26 02:29 | 31.68213 | -134.64689 | 31162 ft | 511 kts | 68° |
| 2026-04-26 02:29 | 31.70390 | -134.56751 | 31159 ft | 510 kts | 68° |
| 2026-04-26 02:30 | 31.72196 | -134.50151 | 31157 ft | 510 kts | 68° |
| 2026-04-26 02:30 | 31.74364 | -134.42206 | 31163 ft | 509 kts | 68° |
| 2026-04-26 02:31 | 31.76521 | -134.34279 | 31151 ft | 509 kts | 68° |
| 2026-04-26 02:31 | 31.78662 | -134.26390 | 31153 ft | 508 kts | 69° |
| 2026-04-26 02:32 | 31.80799 | -134.18492 | 31148 ft | 508 kts | 69° |
| 2026-04-26 02:32 | 31.82947 | -134.10535 | 31145 ft | 507 kts | 69° |
| 2026-04-26 02:33 | 31.85070 | -134.02647 | 31144 ft | 507 kts | 69° |
| 2026-04-26 02:33 | 31.87182 | -133.94776 | 31147 ft | 506 kts | 69° |
| 2026-04-26 02:34 | 31.89295 | -133.86883 | 31143 ft | 506 kts | 69° |
| 2026-04-26 02:34 | 31.91411 | -133.78956 | 31142 ft | 505 kts | 69° |
| 2026-04-26 02:35 | 31.93508 | -133.71076 | 31140 ft | 504 kts | 69° |
| 2026-04-26 02:35 | 31.95597 | -133.63208 | 31138 ft | 504 kts | 70° |
| 2026-04-26 02:36 | 31.97674 | -133.55361 | 31144 ft | 503 kts | 70° |
| 2026-04-26 02:36 | 31.99758 | -133.47466 | 31141 ft | 503 kts | 70° |
| 2026-04-26 02:37 | 32.01820 | -133.39630 | 31136 ft | 502 kts | 70° |
| 2026-04-26 02:37 | 32.03888 | -133.31755 | 31132 ft | 501 kts | 70° |
| 2026-04-26 02:38 | 32.05946 | -133.23889 | 31131 ft | 501 kts | 70° |
| 2026-04-26 02:38 | 32.07992 | -133.16050 | 31129 ft | 500 kts | 70° |
| 2026-04-26 02:39 | 32.10033 | -133.08211 | 31130 ft | 500 kts | 70° |
| 2026-04-26 02:39 | 32.12065 | -133.00380 | 31130 ft | 499 kts | 70° |
| 2026-04-26 02:40 | 32.14083 | -132.92582 | 31129 ft | 499 kts | 70° |
| 2026-04-26 02:40 | 32.16113 | -132.84732 | 31129 ft | 499 kts | 70° |
| 2026-04-26 02:41 | 32.18898 | -132.77321 | 31138 ft | 494 kts | 58° |
| 2026-04-26 02:41 | 32.22153 | -132.70154 | 31127 ft | 494 kts | 58° |
| 2026-04-26 02:42 | 32.25395 | -132.62998 | 31122 ft | 494 kts | 58° |
| 2026-04-26 02:42 | 32.28605 | -132.55794 | 31121 ft | 495 kts | 59° |
| 2026-04-26 02:43 | 32.33378 | -132.44964 | 31121 ft | 496 kts | 59° |
| 2026-04-26 02:43 | 32.36562 | -132.37719 | 31115 ft | 496 kts | 59° |
| 2026-04-26 02:44 | 32.39735 | -132.30486 | 31116 ft | 496 kts | 59° |
| 2026-04-26 02:44 | 32.42907 | -132.23246 | 31113 ft | 496 kts | 59° |
| 2026-04-26 02:45 | 32.46069 | -132.16015 | 31114 ft | 495 kts | 59° |
| 2026-04-26 02:45 | 32.49249 | -132.08728 | 31111 ft | 495 kts | 59° |
| 2026-04-26 02:46 | 32.52385 | -132.01528 | 31108 ft | 495 kts | 59° |
| 2026-04-26 02:46 | 32.55546 | -131.94253 | 31112 ft | 495 kts | 59° |
| 2026-04-26 02:47 | 32.58687 | -131.87012 | 31110 ft | 495 kts | 59° |
| 2026-04-26 02:47 | 32.61822 | -131.79769 | 31110 ft | 495 kts | 59° |
| 2026-04-26 02:48 | 32.64959 | -131.72506 | 31107 ft | 495 kts | 59° |
| 2026-04-26 02:48 | 32.68105 | -131.65209 | 31103 ft | 495 kts | 59° |
| 2026-04-26 02:49 | 32.71230 | -131.57945 | 31105 ft | 495 kts | 59° |
| 2026-04-26 02:49 | 32.74369 | -131.50633 | 31101 ft | 495 kts | 59° |
| 2026-04-26 02:50 | 32.77484 | -131.43362 | 31104 ft | 495 kts | 59° |
| 2026-04-26 02:50 | 32.80608 | -131.36056 | 31103 ft | 496 kts | 59° |
| 2026-04-26 02:51 | 32.83727 | -131.28747 | 31102 ft | 496 kts | 59° |
| 2026-04-26 02:51 | 32.86840 | -131.21437 | 31101 ft | 496 kts | 59° |
| 2026-04-26 02:52 | 32.89943 | -131.14132 | 31097 ft | 495 kts | 59° |
| 2026-04-26 02:52 | 32.93042 | -131.06825 | 31098 ft | 495 kts | 59° |
| 2026-04-26 02:53 | 32.96132 | -130.99523 | 31095 ft | 495 kts | 60° |
| 2026-04-26 02:53 | 32.99233 | -130.92180 | 31097 ft | 494 kts | 60° |
| 2026-04-26 02:54 | 33.02311 | -130.84875 | 31087 ft | 494 kts | 60° |
| 2026-04-26 02:54 | 33.05391 | -130.77550 | 31096 ft | 494 kts | 60° |
| 2026-04-26 02:55 | 33.08453 | -130.70254 | 31091 ft | 493 kts | 60° |
| 2026-04-26 02:55 | 33.11521 | -130.62929 | 31090 ft | 493 kts | 60° |
| 2026-04-26 02:56 | 33.14573 | -130.55626 | 31088 ft | 492 kts | 60° |
| 2026-04-26 02:56 | 33.17640 | -130.48272 | 31088 ft | 492 kts | 60° |
| 2026-04-26 02:57 | 33.20677 | -130.40973 | 31087 ft | 492 kts | 60° |
| 2026-04-26 02:57 | 33.23713 | -130.33663 | 31080 ft | 492 kts | 60° |
| 2026-04-26 02:58 | 33.26744 | -130.26349 | 31082 ft | 492 kts | 60° |
| 2026-04-26 02:58 | 33.29783 | -130.19000 | 31080 ft | 492 kts | 60° |
| 2026-04-26 02:59 | 33.32806 | -130.11674 | 31079 ft | 492 kts | 60° |
| 2026-04-26 02:59 | 33.35821 | -130.04352 | 31074 ft | 492 kts | 61° |
| 2026-04-26 03:00 | 33.38837 | -129.97014 | 31076 ft | 491 kts | 61° |
| 2026-04-26 03:00 | 33.41842 | -129.89683 | 31074 ft | 491 kts | 61° |
| 2026-04-26 03:01 | 33.44837 | -129.82363 | 31071 ft | 490 kts | 61° |
| 2026-04-26 03:01 | 33.47821 | -129.75057 | 31070 ft | 489 kts | 61° |
| 2026-04-26 03:02 | 33.50808 | -129.67723 | 31071 ft | 488 kts | 61° |
| 2026-04-26 03:02 | 33.53774 | -129.60428 | 31069 ft | 487 kts | 62° |
| 2026-04-26 03:03 | 33.56729 | -129.53146 | 31063 ft | 486 kts | 62° |
| 2026-04-26 03:03 | 33.59680 | -129.45856 | 31064 ft | 485 kts | 62° |
| 2026-04-26 03:04 | 33.62632 | -129.38547 | 31062 ft | 484 kts | 62° |
| 2026-04-26 03:04 | 33.65552 | -129.31303 | 31064 ft | 484 kts | 62° |
| 2026-04-26 03:05 | 33.68471 | -129.24047 | 31060 ft | 483 kts | 62° |
| 2026-04-26 03:05 | 33.71399 | -129.16752 | 31064 ft | 483 kts | 62° |
| 2026-04-26 03:06 | 33.74307 | -129.09492 | 31062 ft | 483 kts | 62° |
| 2026-04-26 03:06 | 33.77206 | -129.02238 | 31056 ft | 482 kts | 62° |
| 2026-04-26 03:07 | 33.80103 | -128.94974 | 31058 ft | 482 kts | 62° |
| 2026-04-26 03:07 | 33.82989 | -128.87720 | 31059 ft | 482 kts | 62° |
| 2026-04-26 03:08 | 33.85746 | -128.80371 | 31043 ft | 484 kts | 70° |
| 2026-04-26 03:08 | 33.86990 | -128.72399 | 31056 ft | 485 kts | 87° |
| 2026-04-26 03:09 | 33.87173 | -128.64279 | 31055 ft | 486 kts | 88° |
| 2026-04-26 03:09 | 33.87311 | -128.56180 | 31053 ft | 485 kts | 88° |
| 2026-04-26 03:10 | 33.87490 | -128.48060 | 31045 ft | 485 kts | 88° |
| 2026-04-26 03:10 | 33.87695 | -128.39937 | 31048 ft | 485 kts | 88° |
| 2026-04-26 03:11 | 33.87902 | -128.31853 | 31050 ft | 485 kts | 88° |
| 2026-04-26 03:11 | 33.88104 | -128.23709 | 31050 ft | 486 kts | 88° |
| 2026-04-26 03:12 | 33.88297 | -128.15630 | 31046 ft | 486 kts | 88° |
| 2026-04-26 03:12 | 33.88485 | -128.07500 | 31047 ft | 486 kts | 88° |
| 2026-04-26 03:13 | 33.88668 | -127.99372 | 31043 ft | 486 kts | 88° |
| 2026-04-26 03:13 | 33.88846 | -127.91231 | 31044 ft | 486 kts | 88° |
| 2026-04-26 03:14 | 33.89018 | -127.83100 | 31045 ft | 487 kts | 88° |
| 2026-04-26 03:14 | 33.89185 | -127.74987 | 31040 ft | 487 kts | 88° |
| 2026-04-26 03:15 | 33.89347 | -127.66820 | 31035 ft | 487 kts | 88° |
| 2026-04-26 03:15 | 33.89504 | -127.58684 | 31034 ft | 487 kts | 88° |
| 2026-04-26 03:16 | 33.89654 | -127.50558 | 31033 ft | 487 kts | 88° |
| 2026-04-26 03:16 | 33.89777 | -127.43754 | 31035 ft | 487 kts | 88° |
| 2026-04-26 03:17 | 33.89918 | -127.35626 | 31035 ft | 487 kts | 88° |
| 2026-04-26 03:17 | 33.90053 | -127.27505 | 31038 ft | 487 kts | 88° |
| 2026-04-26 03:18 | 33.90184 | -127.19335 | 31036 ft | 487 kts | 88° |
| 2026-04-26 03:18 | 33.90310 | -127.11186 | 31030 ft | 487 kts | 88° |
| 2026-04-26 03:19 | 33.90429 | -127.03055 | 31028 ft | 487 kts | 88° |
| 2026-04-26 03:19 | 33.90544 | -126.94859 | 31034 ft | 488 kts | 88° |
| 2026-04-26 03:20 | 33.90653 | -126.86723 | 31031 ft | 488 kts | 88° |
| 2026-04-26 03:20 | 33.90758 | -126.78517 | 31029 ft | 488 kts | 88° |
| 2026-04-26 03:21 | 33.90857 | -126.70337 | 31032 ft | 488 kts | 88° |
| 2026-04-26 03:21 | 33.90950 | -126.62189 | 31031 ft | 488 kts | 88° |
| 2026-04-26 03:22 | 33.91038 | -126.54022 | 31024 ft | 489 kts | 88° |
| 2026-04-26 03:22 | 33.91121 | -126.45806 | 31025 ft | 489 kts | 88° |
| 2026-04-26 03:23 | 33.91197 | -126.37674 | 31025 ft | 489 kts | 89° |
| 2026-04-26 03:23 | 33.91269 | -126.29461 | 31023 ft | 489 kts | 89° |
| 2026-04-26 03:24 | 33.91336 | -126.21280 | 31023 ft | 489 kts | 89° |
| 2026-04-26 03:24 | 33.91397 | -126.13101 | 31023 ft | 489 kts | 89° |
| 2026-04-26 03:25 | 33.91452 | -126.04929 | 31022 ft | 489 kts | 89° |
| 2026-04-26 03:25 | 33.91502 | -125.96733 | 31016 ft | 489 kts | 89° |
| 2026-04-26 03:26 | 33.91547 | -125.88535 | 31024 ft | 489 kts | 89° |
| 2026-04-26 03:26 | 33.91586 | -125.80347 | 31018 ft | 489 kts | 89° |
| 2026-04-26 03:27 | 33.91620 | -125.72200 | 31018 ft | 489 kts | 89° |
| 2026-04-26 03:27 | 33.91649 | -125.64028 | 31016 ft | 489 kts | 89° |
| 2026-04-26 03:28 | 33.91672 | -125.55807 | 31014 ft | 489 kts | 89° |
| 2026-04-26 03:28 | 33.91690 | -125.47664 | 31012 ft | 488 kts | 89° |
| 2026-04-26 03:29 | 33.91702 | -125.39493 | 31013 ft | 488 kts | 89° |
| 2026-04-26 03:29 | 33.91709 | -125.31307 | 31009 ft | 488 kts | 89° |
| 2026-04-26 03:30 | 33.91710 | -125.23141 | 31013 ft | 488 kts | 89° |
| 2026-04-26 03:30 | 33.91706 | -125.14988 | 31011 ft | 487 kts | 89° |
| 2026-04-26 03:31 | 33.91697 | -125.06802 | 31006 ft | 487 kts | 89° |
| 2026-04-26 03:31 | 33.91684 | -124.98667 | 31006 ft | 487 kts | 90° |
| 2026-04-26 03:32 | 33.91859 | -124.90536 | 30997 ft | 487 kts | 81° |
| 2026-04-26 03:32 | 33.93280 | -124.82546 | 31007 ft | 486 kts | 75° |
| 2026-04-26 03:33 | 33.94863 | -124.74625 | 31004 ft | 487 kts | 75° |
| 2026-04-26 03:33 | 33.96399 | -124.66710 | 31001 ft | 488 kts | 76° |
| 2026-04-26 03:34 | 33.97908 | -124.58707 | 31002 ft | 489 kts | 76° |
| 2026-04-26 03:34 | 33.99400 | -124.50691 | 30999 ft | 489 kts | 76° |
| 2026-04-26 03:35 | 34.00886 | -124.42686 | 30998 ft | 490 kts | 76° |
| 2026-04-26 03:35 | 34.02189 | -124.35647 | 30998 ft | 490 kts | 76° |
| 2026-04-26 03:36 | 34.03512 | -124.28484 | 30999 ft | 490 kts | 76° |
| 2026-04-26 03:36 | 34.04993 | -124.20436 | 30995 ft | 491 kts | 76° |
| 2026-04-26 03:37 | 34.06461 | -124.12421 | 30993 ft | 491 kts | 76° |
| 2026-04-26 03:37 | 34.07926 | -124.04397 | 30996 ft | 491 kts | 76° |
| 2026-04-26 03:38 | 34.09391 | -123.96340 | 30989 ft | 491 kts | 76° |
| 2026-04-26 03:38 | 34.10850 | -123.88284 | 30990 ft | 491 kts | 76° |
| 2026-04-26 03:39 | 34.12298 | -123.80258 | 30988 ft | 491 kts | 76° |
| 2026-04-26 03:39 | 34.13750 | -123.72179 | 30987 ft | 491 kts | 76° |
| 2026-04-26 03:40 | 34.15191 | -123.64126 | 30987 ft | 491 kts | 76° |
| 2026-04-26 03:40 | 34.16628 | -123.56066 | 30985 ft | 492 kts | 76° |
| 2026-04-26 03:41 | 34.18065 | -123.47972 | 30981 ft | 492 kts | 77° |
| 2026-04-26 03:41 | 34.19487 | -123.39930 | 30981 ft | 492 kts | 77° |
| 2026-04-26 03:42 | 34.20915 | -123.31819 | 30979 ft | 492 kts | 77° |
| 2026-04-26 03:42 | 34.22335 | -123.23723 | 30982 ft | 493 kts | 77° |
| 2026-04-26 03:43 | 34.23753 | -123.15607 | 30981 ft | 494 kts | 77° |
| 2026-04-26 03:43 | 34.24974 | -123.07468 | 30969 ft | 495 kts | 85° |
| 2026-04-26 03:44 | 34.25037 | -122.99110 | 30974 ft | 496 kts | 90° |
| 2026-04-26 03:44 | 34.24948 | -122.90801 | 30980 ft | 497 kts | 90° |
| 2026-04-26 03:45 | 34.24889 | -122.82450 | 30972 ft | 498 kts | 90° |
| 2026-04-26 03:45 | 34.24864 | -122.74046 | 30980 ft | 499 kts | 90° |
| 2026-04-26 03:46 | 34.24847 | -122.65633 | 30979 ft | 500 kts | 90° |
| 2026-04-26 03:47 | 34.24810 | -122.53060 | 30976 ft | 501 kts | 90° |
| 2026-04-26 03:47 | 34.24775 | -122.44597 | 30980 ft | 501 kts | 90° |
| 2026-04-26 03:48 | 34.24734 | -122.36148 | 30971 ft | 502 kts | 90° |
| 2026-04-26 03:48 | 34.24688 | -122.27734 | 30967 ft | 502 kts | 90° |
| 2026-04-26 03:49 | 34.24636 | -122.19329 | 30970 ft | 502 kts | 91° |
| 2026-04-26 03:49 | 34.24577 | -122.10840 | 30980 ft | 503 kts | 91° |
| 2026-04-26 03:50 | 34.24514 | -122.02397 | 30972 ft | 503 kts | 91° |
| 2026-04-26 03:50 | 34.24444 | -121.93936 | 30968 ft | 504 kts | 91° |
| 2026-04-26 03:51 | 34.24368 | -121.85494 | 30967 ft | 504 kts | 91° |
| 2026-04-26 03:51 | 34.24287 | -121.77008 | 30966 ft | 505 kts | 91° |
| 2026-04-26 03:52 | 34.24199 | -121.68490 | 30968 ft | 505 kts | 91° |
| 2026-04-26 03:52 | 34.24105 | -121.59986 | 30971 ft | 506 kts | 92° |
| 2026-04-26 03:53 | 34.24006 | -121.51493 | 30966 ft | 506 kts | 92° |
| 2026-04-26 03:53 | 34.23901 | -121.43009 | 30973 ft | 507 kts | 92° |
| 2026-04-26 03:54 | 34.23790 | -121.34499 | 30961 ft | 507 kts | 92° |
| 2026-04-26 03:54 | 34.23672 | -121.25973 | 30966 ft | 508 kts | 92° |
| 2026-04-26 03:55 | 34.23549 | -121.17438 | 30965 ft | 508 kts | 92° |
| 2026-04-26 03:55 | 34.23419 | -121.08887 | 30961 ft | 508 kts | 92° |
| 2026-04-26 03:56 | 34.23283 | -121.00317 | 30960 ft | 509 kts | 92° |
| 2026-04-26 03:56 | 34.23166 | -120.93211 | 30965 ft | 509 kts | 93° |
| 2026-04-26 03:57 | 34.22995 | -120.83236 | 30962 ft | 509 kts | 93° |
| 2026-04-26 03:57 | 34.22867 | -120.76061 | 30966 ft | 509 kts | 93° |
| 2026-04-26 03:58 | 34.22709 | -120.67532 | 30961 ft | 510 kts | 93° |
| 2026-04-26 03:58 | 34.22544 | -120.58952 | 30961 ft | 510 kts | 93° |
| 2026-04-26 03:59 | 34.22373 | -120.50392 | 30963 ft | 510 kts | 94° |
| 2026-04-26 03:59 | 34.22197 | -120.41822 | 30963 ft | 510 kts | 94° |
| 2026-04-26 04:00 | 34.22014 | -120.33260 | 30961 ft | 510 kts | 94° |
| 2026-04-26 04:00 | 34.21984 | -120.31856 | 30963 ft | 510 kts | 94° |
| 2026-04-26 04:01 | 34.21929 | -120.29361 | 30961 ft | 510 kts | 94° |
| 2026-04-26 04:01 | 34.21738 | -120.20800 | 30954 ft | 510 kts | 94° |
| 2026-04-26 04:02 | 34.21541 | -120.12236 | 30967 ft | 511 kts | 94° |
| 2026-04-26 04:02 | 34.21337 | -120.03630 | 30958 ft | 514 kts | 94° |
| 2026-04-26 04:03 | 34.21126 | -119.94981 | 30962 ft | 515 kts | 94° |
| 2026-04-26 04:03 | 34.20909 | -119.86358 | 30949 ft | 516 kts | 94° |
| 2026-04-26 04:04 | 34.20686 | -119.77683 | 30954 ft | 516 kts | 94° |
| 2026-04-26 04:04 | 34.20457 | -119.69062 | 30945 ft | 515 kts | 94° |
| 2026-04-26 04:05 | 34.20221 | -119.60381 | 30948 ft | 514 kts | 94° |
| 2026-04-26 04:05 | 34.19980 | -119.51747 | 30945 ft | 514 kts | 95° |
| 2026-04-26 04:06 | 34.19734 | -119.43144 | 30961 ft | 513 kts | 95° |
| 2026-04-26 04:06 | 34.19480 | -119.34505 | 30961 ft | 513 kts | 95° |
| 2026-04-26 04:07 | 34.19224 | -119.25944 | 30972 ft | 513 kts | 95° |
| 2026-04-26 04:07 | 34.18959 | -119.17317 | 30963 ft | 513 kts | 95° |
| 2026-04-26 04:08 | 34.18517 | -119.08731 | 30961 ft | 509 kts | 103° |
| 2026-04-26 04:08 | 34.16564 | -119.00609 | 30969 ft | 498 kts | 119° |
| 2026-04-26 04:09 | 34.13710 | -118.93517 | 30970 ft | 497 kts | 123° |
| 2026-04-26 04:09 | 34.10742 | -118.86453 | 30961 ft | 499 kts | 122° |
| 2026-04-26 04:10 | 34.07661 | -118.78899 | 30955 ft | 501 kts | 122° |
| 2026-04-26 04:10 | 34.04636 | -118.71344 | 30954 ft | 502 kts | 122° |
| 2026-04-26 04:11 | 34.01770 | -118.64183 | 30961 ft | 503 kts | 122° |
| 2026-04-26 04:11 | 33.98721 | -118.56598 | 30966 ft | 504 kts | 122° |
| 2026-04-26 04:12 | 33.95666 | -118.49021 | 30975 ft | 504 kts | 122° |
| 2026-04-26 04:12 | 33.92325 | -118.41630 | 30958 ft | 490 kts | 138° |
| 2026-04-26 04:13 | 33.87698 | -118.35752 | 30980 ft | 483 kts | 142° |
| 2026-04-26 04:13 | 33.83310 | -118.30253 | 30962 ft | 485 kts | 142° |
| 2026-04-26 04:14 | 33.78758 | -118.24376 | 30971 ft | 486 kts | 141° |
| 2026-04-26 04:14 | 33.76433 | -118.21360 | 30800 ft | 490 kts | 141° |
| 2026-04-26 04:14 | 33.74113 | -118.18330 | 29961 ft | 499 kts | 141° |
| 2026-04-26 04:14 | 33.71761 | -118.15234 | 28986 ft | 499 kts | 140° |
| 2026-04-26 04:15 | 33.69443 | -118.12175 | 28130 ft | 496 kts | 140° |
| 2026-04-26 04:15 | 33.67126 | -118.09115 | 27481 ft | 489 kts | 140° |
| 2026-04-26 04:15 | 33.64836 | -118.06101 | 26832 ft | 483 kts | 140° |
| 2026-04-26 04:15 | 33.62589 | -118.03155 | 26224 ft | 478 kts | 140° |
| 2026-04-26 04:16 | 33.60360 | -118.00242 | 25590 ft | 473 kts | 140° |
| 2026-04-26 04:16 | 33.58132 | -117.97331 | 24966 ft | 468 kts | 140° |
| 2026-04-26 04:16 | 33.55937 | -117.94465 | 24340 ft | 464 kts | 140° |
| 2026-04-26 04:16 | 33.53740 | -117.91674 | 23734 ft | 458 kts | 142° |
| 2026-04-26 04:17 | 33.51479 | -117.89038 | 23057 ft | 452 kts | 143° |
| 2026-04-26 04:17 | 33.49190 | -117.86455 | 22373 ft | 448 kts | 143° |
| 2026-04-26 04:17 | 33.46945 | -117.83904 | 21751 ft | 443 kts | 143° |
| 2026-04-26 04:17 | 33.44742 | -117.81366 | 21138 ft | 439 kts | 142° |
| 2026-04-26 04:18 | 33.42555 | -117.78872 | 20525 ft | 434 kts | 143° |
| 2026-04-26 04:18 | 33.40301 | -117.76442 | 19935 ft | 429 kts | 144° |
| 2026-04-26 04:18 | 33.38093 | -117.74117 | 19353 ft | 425 kts | 144° |
| 2026-04-26 04:18 | 33.35861 | -117.71773 | 18774 ft | 422 kts | 144° |
| 2026-04-26 04:19 | 33.33672 | -117.69460 | 18170 ft | 420 kts | 143° |
| 2026-04-26 04:19 | 33.31502 | -117.67156 | 17527 ft | 418 kts | 143° |
| 2026-04-26 04:19 | 33.29345 | -117.64856 | 16907 ft | 414 kts | 143° |
| 2026-04-26 04:19 | 33.27212 | -117.62579 | 16315 ft | 404 kts | 143° |
| 2026-04-26 04:20 | 33.25149 | -117.60379 | 15757 ft | 395 kts | 143° |
| 2026-04-26 04:20 | 33.23108 | -117.58218 | 15212 ft | 386 kts | 144° |
| 2026-04-26 04:20 | 33.21105 | -117.56111 | 14684 ft | 378 kts | 144° |
| 2026-04-26 04:20 | 33.19163 | -117.54072 | 14174 ft | 371 kts | 144° |
| 2026-04-26 04:21 | 33.17238 | -117.52049 | 13662 ft | 364 kts | 143° |
| 2026-04-26 04:21 | 33.15362 | -117.50079 | 13100 ft | 361 kts | 143° |
| 2026-04-26 04:21 | 33.13461 | -117.48105 | 12594 ft | 360 kts | 146° |
| 2026-04-26 04:21 | 33.11428 | -117.46326 | 12307 ft | 371 kts | 150° |
| 2026-04-26 04:22 | 33.09278 | -117.44592 | 11778 ft | 374 kts | 150° |
| 2026-04-26 04:22 | 33.07117 | -117.42840 | 11252 ft | 371 kts | 149° |
| 2026-04-26 04:22 | 33.05040 | -117.41127 | 11054 ft | 358 kts | 149° |
| 2026-04-26 04:22 | 33.03154 | -117.39550 | 10839 ft | 349 kts | 149° |
| 2026-04-26 04:23 | 33.01199 | -117.37906 | 10660 ft | 338 kts | 149° |
| 2026-04-26 04:23 | 32.99295 | -117.36306 | 10507 ft | 326 kts | 149° |
| 2026-04-26 04:23 | 32.97500 | -117.34797 | 10355 ft | 309 kts | 149° |
| 2026-04-26 04:23 | 32.95800 | -117.33370 | 10224 ft | 293 kts | 149° |
| 2026-04-26 04:24 | 32.94165 | -117.32000 | 10111 ft | 278 kts | 149° |
| 2026-04-26 04:24 | 32.92616 | -117.30704 | 10005 ft | 269 kts | 149° |
| 2026-04-26 04:24 | 32.91109 | -117.29447 | 9750 ft | 265 kts | 150° |
| 2026-04-26 04:24 | 32.89586 | -117.28184 | 9447 ft | 264 kts | 150° |
| 2026-04-26 04:25 | 32.88098 | -117.26948 | 9160 ft | 262 kts | 149° |
| 2026-04-26 04:25 | 32.86610 | -117.25713 | 8863 ft | 261 kts | 149° |
| 2026-04-26 04:25 | 32.85110 | -117.24468 | 8562 ft | 260 kts | 149° |
| 2026-04-26 04:25 | 32.83636 | -117.23244 | 8243 ft | 260 kts | 149° |
| 2026-04-26 04:26 | 32.82147 | -117.21999 | 7955 ft | 260 kts | 145° |
| 2026-04-26 04:26 | 32.81017 | -117.20341 | 7649 ft | 266 kts | 116° |
| 2026-04-26 04:26 | 32.80422 | -117.18249 | 7396 ft | 266 kts | 106° |
| 2026-04-26 04:26 | 32.79978 | -117.16124 | 7089 ft | 266 kts | 104° |
| 2026-04-26 04:27 | 32.79537 | -117.13976 | 6791 ft | 262 kts | 105° |
| 2026-04-26 04:27 | 32.79100 | -117.11930 | 6594 ft | 250 kts | 106° |
| 2026-04-26 04:27 | 32.78661 | -117.09932 | 6446 ft | 251 kts | 106° |
| 2026-04-26 04:27 | 32.78217 | -117.07934 | 6188 ft | 250 kts | 106° |
| 2026-04-26 04:28 | 32.77757 | -117.05970 | 6019 ft | 245 kts | 108° |
| 2026-04-26 04:28 | 32.77315 | -117.04019 | 5980 ft | 245 kts | 105° |
| 2026-04-26 04:28 | 32.76901 | -117.02053 | 5963 ft | 244 kts | 105° |
| 2026-04-26 04:28 | 32.76492 | -117.00086 | 5959 ft | 244 kts | 105° |
| 2026-04-26 04:29 | 32.76086 | -116.98122 | 5828 ft | 248 kts | 105° |
| 2026-04-26 04:29 | 32.75674 | -116.96141 | 5566 ft | 247 kts | 105° |
| 2026-04-26 04:29 | 32.75263 | -116.94162 | 5304 ft | 243 kts | 104° |
| 2026-04-26 04:29 | 32.74862 | -116.92247 | 5076 ft | 239 kts | 105° |
| 2026-04-26 04:30 | 32.74459 | -116.90322 | 4998 ft | 239 kts | 105° |
| 2026-04-26 04:30 | 32.74065 | -116.88428 | 4980 ft | 238 kts | 105° |
| 2026-04-26 04:30 | 32.73674 | -116.86535 | 4973 ft | 233 kts | 105° |
| 2026-04-26 04:30 | 32.73290 | -116.84720 | 4957 ft | 215 kts | 110° |
| 2026-04-26 04:31 | 32.72500 | -116.83350 | 4962 ft | 199 kts | 148° |
| 2026-04-26 04:31 | 32.71221 | -116.82852 | 4973 ft | 193 kts | 184° |
| 2026-04-26 04:31 | 32.69887 | -116.83008 | 4982 ft | 193 kts | 197° |
| 2026-04-26 04:31 | 32.68783 | -116.83814 | 4986 ft | 188 kts | 234° |
| 2026-04-26 04:32 | 32.68311 | -116.85225 | 4995 ft | 185 kts | 259° |
| 2026-04-26 04:32 | 32.68080 | -116.86726 | 4975 ft | 182 kts | 260° |
| 2026-04-26 04:32 | 32.67870 | -116.88203 | 4858 ft | 185 kts | 261° |
| 2026-04-26 04:32 | 32.67661 | -116.89728 | 4614 ft | 188 kts | 261° |
| 2026-04-26 04:33 | 32.67456 | -116.91251 | 4341 ft | 186 kts | 261° |
| 2026-04-26 04:33 | 32.67281 | -116.92746 | 4072 ft | 182 kts | 269° |
| 2026-04-26 04:33 | 32.67506 | -116.94222 | 3885 ft | 185 kts | 283° |
| 2026-04-26 04:33 | 32.67812 | -116.95728 | 3820 ft | 187 kts | 283° |
| 2026-04-26 04:34 | 32.68139 | -116.97205 | 3788 ft | 184 kts | 284° |
| 2026-04-26 04:34 | 32.68478 | -116.98653 | 3775 ft | 183 kts | 284° |
| 2026-04-26 04:34 | 32.68831 | -117.00134 | 3527 ft | 185 kts | 284° |
| 2026-04-26 04:34 | 32.69180 | -117.01591 | 3243 ft | 183 kts | 284° |
| 2026-04-26 04:35 | 32.69527 | -117.03043 | 2953 ft | 181 kts | 285° |
| 2026-04-26 04:35 | 32.69871 | -117.04475 | 2705 ft | 183 kts | 285° |
| 2026-04-26 04:35 | 32.70104 | -117.05447 | 2508 ft | 183 kts | 284° |
| 2026-04-26 04:35 | 32.70568 | -117.07382 | 2132 ft | 181 kts | 284° |
| 2026-04-26 04:36 | 32.70910 | -117.08805 | 1857 ft | 179 kts | 284° |
| 2026-04-26 04:36 | 32.71240 | -117.10174 | 1612 ft | 165 kts | 284° |
| 2026-04-26 04:36 | 32.71447 | -117.11038 | 1418 ft | 156 kts | 284° |
| 2026-04-26 04:36 | 32.71730 | -117.12221 | 1157 ft | 143 kts | 285° |
| 2026-04-26 04:37 | 32.71990 | -117.13295 | 973 ft | 133 kts | 284° |
| 2026-04-26 04:37 | 32.72246 | -117.14388 | 784 ft | 144 kts | 284° |
| 2026-04-26 04:37 | 32.72517 | -117.15569 | 581 ft | 147 kts | 290° |
| 2026-04-26 04:37 | 32.72817 | -117.16725 | 310 ft | 146 kts | 286° |
| 2026-04-26 04:38 | 32.73080 | -117.17848 | 65 ft | 137 kts | 288° |
| 2026-04-26 04:38 | 32.73330 | -117.18863 | 23 ft | 111 kts | 286° |
| 2026-04-26 04:38 | 32.73504 | -117.19575 | 26 ft | 68 kts | 286° |
| 2026-04-26 04:38 | 32.73598 | -117.19959 | 28 ft | 36 kts | 285° |
| 2026-04-26 04:39 | 32.73631 | -117.20175 | 26 ft | 17 kts | 245° |
| 2026-04-26 04:39 | 32.73564 | -117.20210 | 29 ft | 6 kts | 164° |
| 2026-04-26 04:39 | 32.73550 | -117.20190 | 28 ft | 3 kts | 109° |
| 2026-04-26 04:39 | 32.73543 | -117.20166 | 26 ft | 3 kts | 108° |
| 2026-04-26 04:40 | 32.73537 | -117.20143 | 30 ft | 3 kts | 107° |
| 2026-04-26 04:40 | 32.73531 | -117.20118 | 28 ft | 3 kts | 106° |
| 2026-04-26 04:40 | 32.73525 | -117.20092 | 27 ft | 3 kts | 105° |
| 2026-04-26 04:40 | 32.73518 | -117.20065 | 28 ft | 3 kts | 105° |
| 2026-04-26 04:41 | 32.73512 | -117.20036 | 27 ft | 4 kts | 105° |
| 2026-04-26 04:41 | 32.73501 | -117.19991 | 30 ft | 7 kts | 109° |
| 2026-04-26 04:41 | 32.73460 | -117.19955 | 29 ft | 9 kts | 184° |
| 2026-04-26 04:41 | 32.73407 | -117.19991 | 27 ft | 8 kts | 243° |
| 2026-04-26 04:42 | 32.73397 | -117.20035 | 27 ft | 5 kts | 255° |
| 2026-04-26 04:42 | 32.73393 | -117.20051 | 26 ft | 1 kts | 256° |
| 2026-04-26 04:42 | 32.73393 | -117.20052 | 26 ft | 0 kts | 256° |